Archival Weather

Republic

Farmingdale, New York (KFRG)

Report from: Sunday, February 18, 2024 1:53 AM EST
Current time: Friday, June 14, 2024 9:24 AM EDT

Current weather – Weather history – Daily summaries
Weather forecast

Temperature-4.4°C (24.1°F)
Wind chill-8.9°C (16.0°F)
Dew point-11.7°C (10.9°F)
Winds 6 kts (3.1 m/s, 6.9 mph) West-Northwest (290°)
Visibility10 mi. (16.1 km)
Clouds Sky clear
Altimeter29.94 in.Hg (1014 mB)
Relative humidity57 %
Density altitude-2,373 ft. (-723 m)
Sea-level pressure101.4 kPa (1014 mB, 29.94 in.Hg)
Remarks Fully automated report
Automated weather observing station without precipitation discriminator
Freezing rain sensor not operating
Flight conditions Visual Meteorological Conditions
Raw dataKFRG 180653Z AUTO 29006KT 10SM CLR M04/M12 A2994 RMK AO1 SLP139 T10441117 FZRANO
An error has occurred. This application may no longer respond until reloaded. Reload 🗙